KAL1543 RKPK-RKPC
Flight info
| Callsign | KAL1543 |
|---|---|
| Flight time | 0h 35m |
| Altitude | 22000 |
| Route | ENGOT Y572 UPGOS |
| Aircraft | B739/M-SDE2E3FGHIRWXY/LB1 |
Departure
| Time | 2026-05-04 14:23 |
|---|---|
| Airport | Gimhae International Airport (RKPK) |
Arrival
| Time | 2026-05-04 14:58 |
|---|---|
| Airport | Jeju International Airport (RKPC) |
| Time | Latitude | Longitude | Altitude | Speed | Heading |
|---|---|---|---|---|---|
| 2026-05-04 13:55 | 35.16870 | 128.94649 | 22 ft | 0 kts | 204° |
| 2026-05-04 14:07 | 35.16876 | 128.94652 | 22 ft | 3 kts | 205° |
| 2026-05-04 14:08 | 35.16897 | 128.94666 | 25 ft | 3 kts | 217° |
| 2026-05-04 14:08 | 35.16914 | 128.94684 | 24 ft | 3 kts | 229° |
| 2026-05-04 14:08 | 35.16925 | 128.94701 | 7 ft | 0 kts | 235° |
| 2026-05-04 14:12 | 35.16925 | 128.94696 | 5 ft | 1 kts | 262° |
| 2026-05-04 14:12 | 35.16932 | 128.94682 | 27 ft | 3 kts | 307° |
| 2026-05-04 14:12 | 35.16976 | 128.94590 | 22 ft | 7 kts | 293° |
| 2026-05-04 14:13 | 35.16997 | 128.94534 | 25 ft | 7 kts | 298° |
| 2026-05-04 14:13 | 35.17036 | 128.94500 | 23 ft | 7 kts | 346° |
| 2026-05-04 14:13 | 35.17078 | 128.94488 | 22 ft | 5 kts | 313° |
| 2026-05-04 14:13 | 35.17080 | 128.94446 | 22 ft | 5 kts | 265° |
| 2026-05-04 14:14 | 35.17079 | 128.94438 | 22 ft | 1 kts | 260° |
| 2026-05-04 14:14 | 35.17075 | 128.94401 | 22 ft | 0 kts | 263° |
| 2026-05-04 14:20 | 35.17073 | 128.94380 | 22 ft | 5 kts | 263° |
| 2026-05-04 14:20 | 35.17063 | 128.94334 | 24 ft | 6 kts | 238° |
| 2026-05-04 14:20 | 35.17029 | 128.94313 | 23 ft | 6 kts | 180° |
| 2026-05-04 14:21 | 35.16978 | 128.94252 | 22 ft | 6 kts | 258° |
| 2026-05-04 14:21 | 35.16973 | 128.94206 | 22 ft | 5 kts | 263° |
| 2026-05-04 14:21 | 35.16969 | 128.94160 | 22 ft | 5 kts | 263° |
| 2026-05-04 14:21 | 35.16966 | 128.94113 | 24 ft | 6 kts | 266° |
| 2026-05-04 14:22 | 35.16982 | 128.94058 | 22 ft | 8 kts | 320° |
| 2026-05-04 14:22 | 35.17047 | 128.94046 | 21 ft | 22 kts | 354° |
| 2026-05-04 14:22 | 35.17454 | 128.93994 | 26 ft | 95 kts | 354° |
| 2026-05-04 14:22 | 35.18320 | 128.93883 | 22 ft | 153 kts | 354° |
| 2026-05-04 14:23 | 35.20579 | 128.93427 | 1120 ft | 170 kts | 329° |
| 2026-05-04 14:23 | 35.21276 | 128.92287 | 1801 ft | 173 kts | 290° |
| 2026-05-04 14:23 | 35.21655 | 128.90772 | 2139 ft | 198 kts | 290° |
| 2026-05-04 14:24 | 35.22155 | 128.89084 | 2378 ft | 223 kts | 294° |
| 2026-05-04 14:24 | 35.22775 | 128.87270 | 2711 ft | 243 kts | 295° |
| 2026-05-04 14:24 | 35.23498 | 128.85334 | 3230 ft | 256 kts | 297° |
| 2026-05-04 14:24 | 35.24277 | 128.83370 | 4136 ft | 258 kts | 297° |
| 2026-05-04 14:25 | 35.25097 | 128.81397 | 4987 ft | 262 kts | 298° |
| 2026-05-04 14:25 | 35.25797 | 128.77179 | 6726 ft | 267 kts | 251° |
| 2026-05-04 14:25 | 35.24825 | 128.75247 | 7484 ft | 273 kts | 226° |
| 2026-05-04 14:26 | 35.23260 | 128.73881 | 8217 ft | 281 kts | 210° |
| 2026-05-04 14:26 | 35.21484 | 128.72814 | 8964 ft | 287 kts | 207° |
| 2026-05-04 14:26 | 35.19653 | 128.71793 | 9750 ft | 292 kts | 207° |
| 2026-05-04 14:26 | 35.17783 | 128.70758 | 10382 ft | 301 kts | 207° |
| 2026-05-04 14:27 | 35.15801 | 128.69652 | 10568 ft | 326 kts | 207° |
| 2026-05-04 14:27 | 35.13667 | 128.68449 | 10734 ft | 349 kts | 207° |
| 2026-05-04 14:27 | 35.11406 | 128.67165 | 11008 ft | 366 kts | 207° |
| 2026-05-04 14:27 | 35.09076 | 128.65839 | 11566 ft | 372 kts | 207° |
| 2026-05-04 14:28 | 35.06721 | 128.64496 | 12252 ft | 375 kts | 206° |
| 2026-05-04 14:28 | 35.04351 | 128.63141 | 12938 ft | 378 kts | 206° |
| 2026-05-04 14:28 | 35.01959 | 128.61773 | 13595 ft | 382 kts | 206° |
| 2026-05-04 14:28 | 34.99547 | 128.60393 | 14201 ft | 385 kts | 206° |
| 2026-05-04 14:29 | 34.94661 | 128.57598 | 15452 ft | 390 kts | 206° |
| 2026-05-04 14:29 | 34.89727 | 128.54778 | 16678 ft | 395 kts | 206° |
| 2026-05-04 14:30 | 34.87231 | 128.53353 | 17292 ft | 397 kts | 206° |
| 2026-05-04 14:30 | 34.84729 | 128.51926 | 17910 ft | 398 kts | 207° |
| 2026-05-04 14:30 | 34.79977 | 128.48338 | 17992 ft | 407 kts | 223° |
| 2026-05-04 14:31 | 34.78026 | 128.45876 | 17997 ft | 403 kts | 230° |
| 2026-05-04 14:31 | 34.74378 | 128.40728 | 17984 ft | 401 kts | 231° |
| 2026-05-04 14:32 | 34.70754 | 128.35604 | 18070 ft | 399 kts | 231° |
| 2026-05-04 14:32 | 34.68923 | 128.33041 | 18116 ft | 402 kts | 231° |
| 2026-05-04 14:32 | 34.67086 | 128.30480 | 18116 ft | 401 kts | 231° |
| 2026-05-04 14:32 | 34.65254 | 128.27936 | 18115 ft | 400 kts | 231° |
| 2026-05-04 14:33 | 34.64037 | 128.26251 | 18119 ft | 400 kts | 231° |
| 2026-05-04 14:33 | 34.62197 | 128.23704 | 18131 ft | 404 kts | 231° |
| 2026-05-04 14:33 | 34.60318 | 128.21104 | 18132 ft | 415 kts | 231° |
| 2026-05-04 14:33 | 34.58401 | 128.18454 | 18131 ft | 421 kts | 231° |
| 2026-05-04 14:34 | 34.56469 | 128.15786 | 18120 ft | 419 kts | 231° |
| 2026-05-04 14:34 | 34.54545 | 128.13134 | 18114 ft | 418 kts | 231° |
| 2026-05-04 14:34 | 34.52624 | 128.10488 | 18128 ft | 418 kts | 231° |
| 2026-05-04 14:34 | 34.50705 | 128.07845 | 18125 ft | 417 kts | 231° |
| 2026-05-04 14:35 | 34.48787 | 128.05206 | 18134 ft | 417 kts | 231° |
| 2026-05-04 14:35 | 34.46873 | 128.02572 | 18137 ft | 417 kts | 231° |
| 2026-05-04 14:35 | 34.44954 | 127.99935 | 18133 ft | 417 kts | 231° |
| 2026-05-04 14:35 | 34.43038 | 127.97304 | 18128 ft | 417 kts | 231° |
| 2026-05-04 14:36 | 34.41119 | 127.94669 | 18138 ft | 417 kts | 231° |
| 2026-05-04 14:36 | 34.39200 | 127.92037 | 18131 ft | 417 kts | 231° |
| 2026-05-04 14:36 | 34.37283 | 127.89410 | 18130 ft | 417 kts | 231° |
| 2026-05-04 14:36 | 34.35361 | 127.86778 | 18138 ft | 417 kts | 231° |
| 2026-05-04 14:37 | 34.33444 | 127.84154 | 18143 ft | 417 kts | 231° |
| 2026-05-04 14:37 | 34.31524 | 127.81528 | 18145 ft | 417 kts | 231° |
| 2026-05-04 14:37 | 34.29602 | 127.78902 | 18125 ft | 416 kts | 231° |
| 2026-05-04 14:37 | 34.27681 | 127.76279 | 18133 ft | 416 kts | 231° |
| 2026-05-04 14:38 | 34.25762 | 127.73661 | 18125 ft | 416 kts | 231° |
| 2026-05-04 14:38 | 34.23844 | 127.71045 | 18141 ft | 416 kts | 231° |
| 2026-05-04 14:38 | 34.21923 | 127.68427 | 18133 ft | 416 kts | 231° |
| 2026-05-04 14:38 | 34.20009 | 127.65818 | 18138 ft | 415 kts | 231° |
| 2026-05-04 14:39 | 34.18091 | 127.63204 | 18140 ft | 415 kts | 231° |
| 2026-05-04 14:39 | 34.16174 | 127.60594 | 18142 ft | 414 kts | 231° |
| 2026-05-04 14:39 | 34.14297 | 127.58044 | 18130 ft | 397 kts | 231° |
| 2026-05-04 14:40 | 34.10812 | 127.53316 | 18122 ft | 358 kts | 231° |
| 2026-05-04 14:40 | 34.09180 | 127.51099 | 18128 ft | 351 kts | 231° |
| 2026-05-04 14:40 | 34.07561 | 127.48898 | 18156 ft | 352 kts | 231° |
| 2026-05-04 14:40 | 34.05924 | 127.46672 | 18158 ft | 356 kts | 231° |
| 2026-05-04 14:41 | 34.04268 | 127.44424 | 17926 ft | 362 kts | 231° |
| 2026-05-04 14:41 | 34.02601 | 127.42163 | 17543 ft | 360 kts | 231° |
| 2026-05-04 14:41 | 33.99297 | 127.37695 | 16595 ft | 353 kts | 231° |
| 2026-05-04 14:42 | 33.95824 | 127.33585 | 15638 ft | 351 kts | 218° |
| 2026-05-04 14:42 | 33.93736 | 127.32068 | 15164 ft | 351 kts | 208° |
| 2026-05-04 14:42 | 33.91474 | 127.30946 | 14697 ft | 351 kts | 204° |
| 2026-05-04 14:43 | 33.89196 | 127.29908 | 14227 ft | 349 kts | 204° |
| 2026-05-04 14:43 | 33.86923 | 127.28888 | 13721 ft | 348 kts | 203° |
| 2026-05-04 14:43 | 33.84660 | 127.27868 | 13185 ft | 347 kts | 203° |
| 2026-05-04 14:43 | 33.82398 | 127.26839 | 12596 ft | 348 kts | 204° |
| 2026-05-04 14:44 | 33.80172 | 127.25820 | 12111 ft | 345 kts | 204° |
| 2026-05-04 14:44 | 33.77905 | 127.24779 | 11624 ft | 343 kts | 204° |
| 2026-05-04 14:44 | 33.75712 | 127.23770 | 11159 ft | 341 kts | 204° |
| 2026-05-04 14:44 | 33.73499 | 127.22749 | 10690 ft | 339 kts | 204° |
| 2026-05-04 14:45 | 33.71333 | 127.21752 | 10489 ft | 329 kts | 204° |
| 2026-05-04 14:45 | 33.69229 | 127.20784 | 10337 ft | 318 kts | 204° |
| 2026-05-04 14:45 | 33.67197 | 127.19849 | 10198 ft | 307 kts | 204° |
| 2026-05-04 14:45 | 33.65233 | 127.18947 | 10058 ft | 297 kts | 204° |
| 2026-05-04 14:46 | 33.63337 | 127.18075 | 9966 ft | 286 kts | 204° |
| 2026-05-04 14:46 | 33.61498 | 127.17229 | 9585 ft | 285 kts | 204° |
| 2026-05-04 14:46 | 33.59653 | 127.16379 | 9319 ft | 281 kts | 204° |
| 2026-05-04 14:46 | 33.57862 | 127.15557 | 9184 ft | 271 kts | 204° |
| 2026-05-04 14:47 | 33.56227 | 127.14553 | 9022 ft | 258 kts | 225° |
| 2026-05-04 14:47 | 33.55217 | 127.12863 | 8975 ft | 247 kts | 251° |
| 2026-05-04 14:47 | 33.54887 | 127.10843 | 8716 ft | 250 kts | 272° |
| 2026-05-04 14:47 | 33.55172 | 127.08805 | 8473 ft | 248 kts | 287° |
| 2026-05-04 14:48 | 33.55721 | 127.06861 | 8211 ft | 245 kts | 290° |
| 2026-05-04 14:48 | 33.56310 | 127.04961 | 7954 ft | 242 kts | 290° |
| 2026-05-04 14:48 | 33.56896 | 127.03078 | 7718 ft | 241 kts | 290° |
| 2026-05-04 14:48 | 33.57476 | 127.01196 | 7477 ft | 240 kts | 290° |
| 2026-05-04 14:49 | 33.58049 | 126.99315 | 7229 ft | 240 kts | 290° |
| 2026-05-04 14:49 | 33.58618 | 126.97434 | 7000 ft | 240 kts | 290° |
| 2026-05-04 14:49 | 33.59184 | 126.95550 | 6760 ft | 241 kts | 290° |
| 2026-05-04 14:49 | 33.59750 | 126.93659 | 6522 ft | 242 kts | 290° |
| 2026-05-04 14:50 | 33.60317 | 126.91757 | 6255 ft | 241 kts | 290° |
| 2026-05-04 14:50 | 33.60877 | 126.89876 | 6001 ft | 238 kts | 290° |
| 2026-05-04 14:50 | 33.61430 | 126.88014 | 5759 ft | 235 kts | 290° |
| 2026-05-04 14:50 | 33.61975 | 126.86174 | 5523 ft | 233 kts | 290° |
| 2026-05-04 14:51 | 33.62516 | 126.84351 | 5300 ft | 231 kts | 290° |
| 2026-05-04 14:51 | 33.63053 | 126.82539 | 5067 ft | 230 kts | 291° |
| 2026-05-04 14:51 | 33.63586 | 126.80735 | 4832 ft | 229 kts | 291° |
| 2026-05-04 14:51 | 33.64114 | 126.78949 | 4601 ft | 225 kts | 291° |
| 2026-05-04 14:52 | 33.64617 | 126.77185 | 4354 ft | 222 kts | 284° |
| 2026-05-04 14:52 | 33.64532 | 126.75368 | 4146 ft | 218 kts | 251° |
| 2026-05-04 14:52 | 33.63858 | 126.73785 | 3978 ft | 210 kts | 240° |
| 2026-05-04 14:52 | 33.63093 | 126.72320 | 3742 ft | 204 kts | 239° |
| 2026-05-04 14:53 | 33.62345 | 126.70895 | 3557 ft | 199 kts | 239° |
| 2026-05-04 14:53 | 33.61622 | 126.69505 | 3349 ft | 192 kts | 239° |
| 2026-05-04 14:53 | 33.60934 | 126.68175 | 3130 ft | 183 kts | 240° |
| 2026-05-04 14:53 | 33.60285 | 126.66918 | 2948 ft | 177 kts | 240° |
| 2026-05-04 14:54 | 33.59644 | 126.65672 | 2792 ft | 173 kts | 240° |
| 2026-05-04 14:54 | 33.59014 | 126.64441 | 2609 ft | 174 kts | 240° |
| 2026-05-04 14:54 | 33.58376 | 126.63196 | 2474 ft | 174 kts | 240° |
| 2026-05-04 14:54 | 33.57755 | 126.61988 | 2262 ft | 166 kts | 240° |
| 2026-05-04 14:55 | 33.57167 | 126.60842 | 2141 ft | 157 kts | 240° |
| 2026-05-04 14:55 | 33.56612 | 126.59761 | 1945 ft | 148 kts | 240° |
| 2026-05-04 14:55 | 33.56072 | 126.58706 | 1834 ft | 149 kts | 240° |
| 2026-05-04 14:55 | 33.55526 | 126.57638 | 1603 ft | 150 kts | 240° |
| 2026-05-04 14:56 | 33.54989 | 126.56589 | 1395 ft | 145 kts | 239° |
| 2026-05-04 14:56 | 33.54464 | 126.55575 | 1167 ft | 141 kts | 238° |
| 2026-05-04 14:56 | 33.53950 | 126.54574 | 999 ft | 142 kts | 238° |
| 2026-05-04 14:56 | 33.53435 | 126.53572 | 807 ft | 142 kts | 237° |
| 2026-05-04 14:57 | 33.52915 | 126.52569 | 644 ft | 140 kts | 238° |
| 2026-05-04 14:57 | 33.52397 | 126.51560 | 418 ft | 144 kts | 237° |
| 2026-05-04 14:57 | 33.51882 | 126.50533 | 275 ft | 145 kts | 238° |
| 2026-05-04 14:57 | 33.51365 | 126.49518 | 98 ft | 139 kts | 237° |
| 2026-05-04 14:58 | 33.50913 | 126.48639 | 92 ft | 105 kts | 238° |
| 2026-05-04 14:58 | 33.50635 | 126.48098 | 92 ft | 35 kts | 238° |
| 2026-05-04 14:58 | 33.50492 | 126.47959 | 93 ft | 14 kts | 209° |
| 2026-05-04 14:58 | 33.50420 | 126.47917 | 94 ft | 10 kts | 191° |
| 2026-05-04 14:59 | 33.50378 | 126.47965 | 92 ft | 10 kts | 86° |
| 2026-05-04 14:59 | 33.50407 | 126.48035 | 94 ft | 9 kts | 59° |
| 2026-05-04 14:59 | 33.50473 | 126.48163 | 91 ft | 9 kts | 58° |
| 2026-05-04 15:00 | 33.50505 | 126.48224 | 93 ft | 9 kts | 58° |
| 2026-05-04 15:00 | 33.50535 | 126.48284 | 93 ft | 8 kts | 59° |
| 2026-05-04 15:00 | 33.50522 | 126.48344 | 90 ft | 8 kts | 137° |
| 2026-05-04 15:01 | 33.50437 | 126.48423 | 90 ft | 8 kts | 104° |
| 2026-05-04 15:01 | 33.50457 | 126.48480 | 91 ft | 7 kts | 59° |
| 2026-05-04 15:01 | 33.50484 | 126.48533 | 91 ft | 7 kts | 58° |
| 2026-05-04 15:01 | 33.50510 | 126.48583 | 91 ft | 7 kts | 58° |
| 2026-05-04 15:02 | 33.50535 | 126.48632 | 89 ft | 7 kts | 58° |
| 2026-05-04 15:02 | 33.50559 | 126.48680 | 90 ft | 7 kts | 58° |
| 2026-05-04 15:02 | 33.50584 | 126.48727 | 91 ft | 7 kts | 58° |
| 2026-05-04 15:02 | 33.50608 | 126.48774 | 89 ft | 6 kts | 58° |
| 2026-05-04 15:03 | 33.50631 | 126.48819 | 89 ft | 6 kts | 58° |
| 2026-05-04 15:03 | 33.50654 | 126.48864 | 91 ft | 6 kts | 58° |
| 2026-05-04 15:03 | 33.50676 | 126.48907 | 88 ft | 6 kts | 58° |
| 2026-05-04 15:03 | 33.50698 | 126.48950 | 92 ft | 6 kts | 58° |
| 2026-05-04 15:04 | 33.50720 | 126.48992 | 91 ft | 6 kts | 58° |
| 2026-05-04 15:04 | 33.50741 | 126.49033 | 89 ft | 6 kts | 58° |
| 2026-05-04 15:04 | 33.50761 | 126.49073 | 90 ft | 6 kts | 58° |
| 2026-05-04 15:04 | 33.50781 | 126.49112 | 88 ft | 5 kts | 58° |
| 2026-05-04 15:05 | 33.50801 | 126.49149 | 90 ft | 5 kts | 58° |
| 2026-05-04 15:05 | 33.50819 | 126.49186 | 89 ft | 5 kts | 58° |
| 2026-05-04 15:05 | 33.50838 | 126.49222 | 92 ft | 5 kts | 58° |
| 2026-05-04 15:05 | 33.50855 | 126.49256 | 89 ft | 5 kts | 58° |
| 2026-05-04 15:06 | 33.50872 | 126.49290 | 91 ft | 5 kts | 58° |
| 2026-05-04 15:06 | 33.50889 | 126.49322 | 91 ft | 4 kts | 58° |
| 2026-05-04 15:06 | 33.50905 | 126.49353 | 91 ft | 4 kts | 58° |
| 2026-05-04 15:07 | 33.50931 | 126.49414 | 93 ft | 4 kts | 89° |
| 2026-05-04 15:07 | 33.50911 | 126.49434 | 92 ft | 4 kts | 164° |
| 2026-05-04 15:07 | 33.50886 | 126.49436 | 92 ft | 4 kts | 174° |
| 2026-05-04 15:07 | 33.50860 | 126.49437 | 95 ft | 4 kts | 178° |
| 2026-05-04 15:08 | 33.50836 | 126.49439 | 95 ft | 3 kts | 177° |
| 2026-05-04 15:08 | 33.50813 | 126.49440 | 94 ft | 3 kts | 177° |
| 2026-05-04 15:08 | 33.50805 | 126.49440 | 94 ft | 0 kts | 177° |